Time;durP1;ratioP1;P1;durP2;ratioP2;P2;SDS_P1;SDS_P2;PMS_P1;PMS_P2;Temp;Humidity;BMP_temperature;BMP_pressure;BME280_temperature;BME280_humidity;BME280_pressure;Samples;Min_cycle;Max_cycle;Signal;HPM_P1;HPM_P2
2022/10/25 00:01:44;;;;;;;13.77;2.80;;;;;;;14.56;86.64;100935.19;3613444;39;20061;-59
2022/10/25 00:04:09;;;;;;;10.48;2.45;;;;;;;14.57;86.29;100930.63;3611178;39;20061;-59
2022/10/25 00:06:35;;;;;;;9.02;2.17;;;;;;;14.56;86.79;100924.38;3613889;39;20050;-60
2022/10/25 00:09:00;;;;;;;9.05;2.40;;;;;;;14.58;86.19;100932.34;3613743;39;20062;-60
2022/10/25 00:11:29;;;;;;;8.80;2.22;;;;;;;14.57;86.12;100936.03;3613960;39;20057;-60
2022/10/25 00:14:00;;;;;;;7.53;2.42;;;;;;;14.61;86.54;100949.19;3609442;39;20458;-60
2022/10/25 00:16:34;;;;;;;9.57;2.13;;;;;;;14.65;86.74;100948.97;3613879;39;20053;-60
2022/10/25 00:18:59;;;;;;;8.98;2.65;;;;;;;14.64;86.53;100948.09;3613738;39;20423;-60
2022/10/25 00:21:25;;;;;;;8.43;2.72;;;;;;;14.67;86.62;100947.00;3613296;39;20067;-60
2022/10/25 00:23:51;;;;;;;9.55;2.45;;;;;;;14.67;86.17;100947.88;3613774;39;20063;-60
2022/10/25 00:26:18;;;;;;;10.45;2.47;;;;;;;14.69;85.55;100945.91;3614163;39;20275;-60
2022/10/25 00:28:44;;;;;;;7.90;2.25;;;;;;;14.73;85.74;100951.97;3612620;39;20572;-60
2022/10/25 00:31:15;;;;;;;8.05;2.85;;;;;;;14.55;85.81;100922.63;3613025;39;20046;-60
2022/10/25 00:33:43;;;;;;;9.00;2.30;;;;;;;14.76;85.78;100957.13;3613473;39;20043;-60
2022/10/25 00:36:19;;;;;;;12.82;2.58;;;;;;;14.79;85.60;100951.47;3613302;39;20051;-60
2022/10/25 00:38:46;;;;;;;10.75;2.15;;;;;;;14.81;85.61;100955.81;3612649;39;20402;-59
2022/10/25 00:41:17;;;;;;;10.35;2.40;;;;;;;14.85;85.61;100956.44;3613202;39;20059;-60
2022/10/25 00:43:47;;;;;;;10.23;2.30;;;;;;;14.88;85.69;100953.47;3612809;39;20671;-60
2022/10/25 00:46:26;;;;;;;8.57;2.53;;;;;;;14.90;85.45;100948.78;3605665;39;20380;-60
2022/10/25 00:49:16;;;;;;;9.13;2.45;;;;;;;14.93;85.01;100953.97;3613288;39;20082;-60
2022/10/25 00:51:56;;;;;;;9.85;2.30;;;;;;;14.97;85.01;100960.88;3613070;39;20132;-60
2022/10/25 00:54:41;;;;;;;7.82;1.80;;;;;;;14.98;84.50;100957.19;3612153;39;20046;-60
2022/10/25 00:57:38;;;;;;;5.95;2.17;;;;;;;14.99;84.34;100949.91;3610634;39;20051;-60
2022/10/25 01:00:08;;;;;;;10.68;2.50;;;;;;;14.95;84.28;100960.13;3610163;39;20057;-60
2022/10/25 01:02:34;;;;;;;7.22;2.00;;;;;;;14.96;84.27;100966.41;3611160;39;20123;-60
2022/10/25 01:05:01;;;;;;;6.55;2.10;;;;;;;14.95;83.75;100970.97;3613730;39;20050;-60
2022/10/25 01:07:27;;;;;;;9.57;2.22;;;;;;;14.94;83.75;100962.94;3613285;39;20057;-59
2022/10/25 01:09:53;;;;;;;12.65;2.22;;;;;;;14.84;83.73;100955.56;3612404;39;20050;-60
2022/10/25 01:12:18;;;;;;;10.45;2.58;;;;;;;14.93;83.68;100966.63;3613756;39;20047;-60
2022/10/25 01:14:50;;;;;;;8.18;2.17;;;;;;;14.91;84.29;100969.47;3613188;39;20073;-59
2022/10/25 01:17:32;;;;;;;9.05;2.70;;;;;;;14.91;84.63;100971.34;3614112;39;20150;-60
2022/10/25 01:20:35;;;;;;;9.68;1.73;;;;;;;14.86;84.14;100972.53;3612751;39;20120;-60
2022/10/25 01:23:44;;;;;;;7.20;2.08;;;;;;;14.88;83.85;100967.00;3613937;39;20043;-60
2022/10/25 01:26:27;;;;;;;7.55;1.88;;;;;;;14.88;83.80;100966.16;3613666;39;20043;-60
2022/10/25 01:29:57;;;;;;;11.05;2.38;;;;;;;14.89;83.92;100979.56;3613448;39;20294;-60
2022/10/25 01:32:31;;;;;;;11.50;2.30;;;;;;;14.92;83.76;100979.31;3607730;39;20047;-59
2022/10/25 01:35:26;;;;;;;9.93;2.30;;;;;;;14.91;83.77;100983.00;3612638;39;20043;-60
2022/10/25 01:38:07;;;;;;;11.18;2.40;;;;;;;14.93;84.43;100986.44;3613948;39;20082;-60
2022/10/25 01:40:58;;;;;;;8.45;1.92;;;;;;;14.93;84.05;100982.88;3612701;39;20374;-60
2022/10/25 01:43:59;;;;;;;7.90;2.08;;;;;;;14.96;84.06;100997.03;3611749;39;20047;-60
2022/10/25 01:46:43;;;;;;;9.57;2.15;;;;;;;14.92;83.83;100982.03;3614880;39;20425;-60
2022/10/25 01:49:25;;;;;;;11.60;1.83;;;;;;;14.95;83.94;100995.31;3613370;39;20058;-60
2022/10/25 01:51:51;;;;;;;7.60;1.80;;;;;;;14.96;83.80;100988.91;3612721;39;20112;-59
2022/10/25 01:54:24;;;;;;;8.27;2.10;;;;;;;14.94;83.10;100988.19;3613798;39;20046;-62
2022/10/25 01:57:18;;;;;;;8.73;2.10;;;;;;;14.92;83.11;100992.84;3614791;39;20051;-63
2022/10/25 02:00:21;;;;;;;8.90;2.05;;;;;;;14.89;83.37;100990.38;3614260;39;20114;-62
2022/10/25 02:03:33;;;;;;;7.93;2.20;;;;;;;14.85;83.64;100991.59;3615070;39;20070;-61
2022/10/25 02:06:14;;;;;;;6.57;2.10;;;;;;;14.80;83.23;100991.94;3614781;39;20059;-62
2022/10/25 02:08:55;;;;;;;11.40;2.42;;;;;;;14.76;83.53;100995.88;3614373;39;20058;-62
2022/10/25 02:11:31;;;;;;;6.90;2.08;;;;;;;14.74;83.71;101002.38;3614966;39;20358;-62
2022/10/25 02:14:44;;;;;;;9.13;2.15;;;;;;;14.74;84.06;100996.97;3608487;39;20051;-62
2022/10/25 02:17:24;;;;;;;11.25;2.40;;;;;;;14.69;84.42;101010.00;3590925;40;20071;-61
2022/10/25 02:19:58;;;;;;;10.60;2.10;;;;;;;14.68;84.24;101008.25;3592377;40;20090;-63
2022/10/25 02:22:31;;;;;;;10.15;2.40;;;;;;;14.67;84.11;101007.41;3604901;39;20294;-62
2022/10/25 02:25:00;;;;;;;10.75;2.50;;;;;;;14.68;84.65;101013.66;3615529;39;20058;-62
2022/10/25 02:27:29;;;;;;;9.48;2.22;;;;;;;14.70;84.66;101006.31;3616709;39;20042;-63
2022/10/25 02:29:57;;;;;;;10.18;2.25;;;;;;;14.70;84.25;101003.59;3613621;39;20302;-62
2022/10/25 02:32:23;;;;;;;11.18;2.45;;;;;;;14.68;84.31;101008.25;3614383;39;20042;-62
2022/10/25 02:34:50;;;;;;;7.80;2.15;;;;;;;14.66;84.32;100996.72;3614492;39;20051;-62
2022/10/25 02:37:17;;;;;;;7.97;2.53;;;;;;;14.57;84.36;100999.13;3614728;39;20062;-62
2022/10/25 02:39:45;;;;;;;12.52;2.67;;;;;;;14.57;84.06;101004.53;3613427;39;20047;-62
2022/10/25 02:42:10;;;;;;;9.48;2.20;;;;;;;14.58;84.48;101014.38;3613741;39;20062;-62
2022/10/25 02:44:36;;;;;;;11.55;2.30;;;;;;;14.57;84.25;101007.25;3615035;39;20293;-62
2022/10/25 02:47:01;;;;;;;9.27;2.53;;;;;;;14.53;84.88;101008.47;3613769;39;20292;-63
2022/10/25 02:49:28;;;;;;;9.20;2.53;;;;;;;14.47;84.43;101000.78;3614136;39;20055;-63
2022/10/25 02:51:54;;;;;;;9.40;2.28;;;;;;;14.56;84.37;101018.19;3612066;39;20046;-62
2022/10/25 02:54:20;;;;;;;8.48;1.65;;;;;;;14.54;84.18;101022.84;3614690;39;20289;-63
2022/10/25 02:56:45;;;;;;;10.90;2.42;;;;;;;14.51;84.70;101023.94;3614080;39;20082;-62
2022/10/25 02:59:11;;;;;;;10.32;2.35;;;;;;;14.52;84.68;101020.22;3614056;39;20067;-62
2022/10/25 03:01:37;;;;;;;10.88;2.67;;;;;;;14.51;84.36;101025.78;3609918;39;20080;-62
2022/10/25 03:04:03;;;;;;;7.90;2.28;;;;;;;14.38;84.71;101006.88;3611820;39;20059;-62
2022/10/25 03:06:28;;;;;;;10.27;2.17;;;;;;;14.47;84.92;101022.41;3614153;39;20061;-62
2022/10/25 03:08:54;;;;;;;7.40;2.38;;;;;;;14.45;84.71;101028.91;3614374;39;20058;-62
2022/10/25 03:11:20;;;;;;;11.20;2.85;;;;;;;14.44;84.66;101028.06;3614213;39;20061;-62
2022/10/25 03:13:45;;;;;;;9.00;2.78;;;;;;;14.43;84.67;101025.44;3613946;39;20055;-63
2022/10/25 03:16:11;;;;;;;9.80;2.40;;;;;;;14.40;84.92;101021.16;3613938;39;20063;-62
2022/10/25 03:18:37;;;;;;;9.38;2.05;;;;;;;14.37;84.52;101015.97;3614309;39;20071;-62
2022/10/25 03:21:04;;;;;;;8.18;2.40;;;;;;;14.36;84.65;101030.44;3614181;39;20378;-62
2022/10/25 03:23:30;;;;;;;8.27;2.10;;;;;;;14.35;84.64;101039.56;3614126;39;20054;-62
2022/10/25 03:25:59;;;;;;;9.30;2.40;;;;;;;14.32;84.86;101035.22;3611634;39;20051;-62
2022/10/25 03:28:26;;;;;;;7.43;2.33;;;;;;;14.30;84.65;101034.50;3613802;39;20059;-62
2022/10/25 03:30:53;;;;;;;7.40;2.10;;;;;;;14.30;84.65;101037.19;3597357;39;20056;-62
2022/10/25 03:33:19;;;;;;;5.25;1.98;;;;;;;14.28;84.94;101049.09;3614022;39;20341;-62
2022/10/25 03:35:50;;;;;;;10.38;2.45;;;;;;;14.26;84.47;101053.75;3614292;39;20043;-64
2022/10/25 03:38:15;;;;;;;9.75;3.28;;;;;;;14.23;84.40;101049.44;3616466;39;20093;-63
2022/10/25 03:40:42;;;;;;;10.43;2.88;;;;;;;14.22;85.15;101055.81;3613818;39;20051;-62
2022/10/25 03:43:08;;;;;;;9.23;2.55;;;;;;;14.21;84.46;101067.63;3613639;39;20055;-60
2022/10/25 03:45:33;;;;;;;5.45;2.38;;;;;;;14.20;84.64;101068.56;3613841;39;20090;-60
2022/10/25 03:47:59;;;;;;;8.57;2.40;;;;;;;14.21;84.46;101072.13;3613464;39;20050;-60
2022/10/25 03:50:25;;;;;;;5.15;2.00;;;;;;;14.19;84.47;101074.97;3613209;39;20055;-59
2022/10/25 03:52:50;;;;;;;5.20;2.20;;;;;;;14.18;84.83;101065.16;3609914;39;20445;-59
2022/10/25 03:55:16;;;;;;;9.98;3.15;;;;;;;14.09;84.77;101060.41;3613770;39;20284;-60
2022/10/25 03:57:42;;;;;;;6.80;2.20;;;;;;;14.15;84.91;101085.16;3614369;39;20119;-60
2022/10/25 04:00:08;;;;;;;6.25;2.30;;;;;;;14.17;84.98;101080.47;3613562;39;20134;-60
2022/10/25 04:02:34;;;;;;;6.68;2.42;;;;;;;14.17;85.21;101085.88;3612963;39;20102;-59
2022/10/25 04:04:59;;;;;;;9.65;2.95;;;;;;;14.16;84.94;101084.16;3614039;39;20116;-60
2022/10/25 04:07:25;;;;;;;6.22;2.25;;;;;;;14.17;84.67;101096.69;3616062;39;20050;-60
2022/10/25 04:09:50;;;;;;;9.75;2.75;;;;;;;14.13;84.85;101084.38;3613028;39;20053;-60
2022/10/25 04:12:16;;;;;;;8.35;2.67;;;;;;;14.12;84.94;101085.38;3613777;39;20051;-60
2022/10/25 04:14:42;;;;;;;9.18;3.08;;;;;;;14.17;84.89;101087.72;3614407;39;20389;-60
2022/10/25 04:17:07;;;;;;;6.30;2.50;;;;;;;14.16;84.84;101089.56;3610267;39;20051;-60
2022/10/25 04:19:33;;;;;;;8.93;2.75;;;;;;;14.15;84.94;101087.84;3614385;39;20420;-60
2022/10/25 04:22:01;;;;;;;10.82;2.97;;;;;;;14.14;84.59;101079.84;3614048;39;20419;-60
2022/10/25 04:24:27;;;;;;;4.63;2.30;;;;;;;14.12;84.82;101087.22;3613111;39;20047;-60
2022/10/25 04:26:52;;;;;;;8.25;2.90;;;;;;;14.09;84.99;101095.53;3612513;39;20042;-59
2022/10/25 04:29:18;;;;;;;6.47;2.53;;;;;;;14.04;84.81;101090.44;3612776;39;20107;-59
2022/10/25 04:31:43;;;;;;;13.63;7.53;;;;;;;14.07;85.11;101103.75;3614076;39;20050;-60
2022/10/25 04:34:09;;;;;;;9.10;4.05;;;;;;;13.96;84.93;101084.75;3614060;39;20074;-60
2022/10/25 04:36:35;;;;;;;8.35;2.80;;;;;;;14.01;85.27;101106.03;3614277;39;20292;-60
2022/10/25 04:39:00;;;;;;;5.93;2.67;;;;;;;14.00;85.43;101096.22;3613139;39;20054;-59
2022/10/25 04:41:26;;;;;;;9.00;3.00;;;;;;;14.00;85.31;101094.38;3612451;39;20416;-60
2022/10/25 04:43:52;;;;;;;11.90;3.10;;;;;;;13.98;85.41;101093.59;3612238;39;20047;-60
2022/10/25 04:46:19;;;;;;;11.27;3.13;;;;;;;13.92;85.08;101085.94;3613719;39;20051;-60
2022/10/25 04:48:44;;;;;;;8.98;3.05;;;;;;;13.94;85.16;101089.41;3601946;39;20051;-60
2022/10/25 04:51:12;;;;;;;8.57;2.83;;;;;;;13.96;85.22;101098.28;3612573;39;20063;-60
2022/10/25 04:53:38;;;;;;;7.82;2.92;;;;;;;13.93;84.65;101107.44;3611327;39;20073;-60
2022/10/25 04:56:09;;;;;;;10.40;3.50;;;;;;;13.91;85.60;101100.41;3613622;39;20053;-60
2022/10/25 04:58:35;;;;;;;9.13;2.88;;;;;;;13.87;85.12;101098.91;3613030;39;20058;-60
2022/10/25 05:01:14;;;;;;;8.75;3.47;;;;;;;13.85;85.82;101103.56;3613240;39;20047;-60
2022/10/25 05:03:40;;;;;;;10.82;3.60;;;;;;;13.73;85.73;101082.81;3613107;39;20303;-60
2022/10/25 05:06:15;;;;;;;11.30;3.35;;;;;;;13.83;85.67;101114.50;3610439;39;20174;-60
2022/10/25 05:08:45;;;;;;;10.15;3.40;;;;;;;13.84;86.06;101110.81;3613349;39;20058;-60
2022/10/25 05:11:14;;;;;;;9.05;3.42;;;;;;;13.85;86.15;101111.66;3613187;39;20135;-60
2022/10/25 05:13:43;;;;;;;7.20;3.58;;;;;;;13.84;85.84;101109.94;3613663;39;20051;-60
2022/10/25 05:16:16;;;;;;;7.13;3.22;;;;;;;13.81;86.23;101115.56;3612327;39;20058;-60
2022/10/25 05:18:44;;;;;;;8.65;3.00;;;;;;;13.84;85.88;101121.63;3613601;39;20101;-60
2022/10/25 05:21:15;;;;;;;8.02;3.40;;;;;;;13.83;85.93;101128.00;3612940;39;20071;-60
2022/10/25 05:23:41;;;;;;;9.35;3.25;;;;;;;13.81;85.66;101132.66;3613520;39;20059;-60
2022/10/25 05:26:15;;;;;;;6.00;3.22;;;;;;;13.80;86.05;101130.94;3612282;39;20416;-60
2022/10/25 05:28:44;;;;;;;9.30;2.85;;;;;;;13.81;85.66;101142.59;3614649;39;20047;-60
2022/10/25 05:31:18;;;;;;;11.15;3.20;;;;;;;13.79;85.54;101139.13;3613805;39;20066;-60
2022/10/25 05:33:44;;;;;;;;;;;;;;;13.75;86.30;101140.31;3601960;39;20044;-59
2022/10/25 05:36:12;;;;;;;8.57;3.08;;;;;;;13.76;85.81;101139.34;3614480;39;19947;-60
2022/10/25 05:38:39;;;;;;;9.43;3.08;;;;;;;13.73;86.17;101134.16;3614268;39;20081;-59
2022/10/25 05:41:06;;;;;;;9.95;3.47;;;;;;;13.74;86.03;101149.41;3612651;39;20053;-60
2022/10/25 05:43:32;;;;;;;8.15;3.00;;;;;;;13.59;86.01;101127.88;3615093;39;20312;-60
2022/10/25 05:46:09;;;;;;;8.20;2.78;;;;;;;13.72;85.97;101148.63;3615031;39;20047;-59
2022/10/25 05:48:36;;;;;;;7.53;3.15;;;;;;;13.70;85.87;101152.31;3615227;39;20065;-60
2022/10/25 05:51:17;;;;;;;9.57;3.05;;;;;;;13.67;86.10;101154.38;3614282;39;20270;-60
2022/10/25 05:53:53;;;;;;;8.63;3.08;;;;;;;13.64;86.16;101157.28;3613337;39;20057;-60
2022/10/25 05:56:22;;;;;;;7.47;3.28;;;;;;;13.58;86.39;101149.59;3615580;39;20081;-60
2022/10/25 05:58:48;;;;;;;8.02;3.58;;;;;;;13.64;86.21;101168.94;3614167;39;20389;-59
2022/10/25 06:01:18;;;;;;;6.35;3.58;;;;;;;13.65;86.34;101167.13;3614336;39;20099;-60
2022/10/25 06:03:49;;;;;;;9.27;3.72;;;;;;;13.66;86.41;101168.84;3613688;39;20046;-60
2022/10/25 06:06:16;;;;;;;16.67;4.10;;;;;;;13.68;86.24;101175.00;3614939;39;20329;-59
2022/10/25 06:08:41;;;;;;;8.05;4.10;;;;;;;13.68;86.23;101175.00;3612512;39;20293;-60
2022/10/25 06:11:11;;;;;;;11.02;4.57;;;;;;;13.67;85.97;101171.44;3614362;39;20047;-60
2022/10/25 06:13:38;;;;;;;14.73;4.60;;;;;;;13.68;86.68;101177.72;3615108;39;20047;-60
2022/10/25 06:16:11;;;;;;;9.65;4.70;;;;;;;13.77;86.67;101189.72;3612664;39;20104;-60
2022/10/25 06:18:38;;;;;;;12.00;4.65;;;;;;;13.77;86.26;101174.38;3614794;39;20124;-60
2022/10/25 06:21:13;;;;;;;14.18;4.82;;;;;;;13.87;86.19;101188.09;3614308;39;20157;-59
2022/10/25 06:23:40;;;;;;;12.63;4.65;;;;;;;13.89;86.05;101186.13;3613315;39;20125;-60
2022/10/25 06:26:10;;;;;;;12.52;5.53;;;;;;;13.90;85.38;101191.44;3613854;39;20455;-60
2022/10/25 06:28:38;;;;;;;11.30;5.53;;;;;;;13.84;85.20;101191.03;3615185;39;20055;-60
2022/10/25 06:31:16;;;;;;;11.70;5.15;;;;;;;13.90;85.13;101199.56;3612835;39;20415;-60
2022/10/25 06:33:42;;;;;;;10.32;5.00;;;;;;;13.93;85.42;101207.47;3614968;39;20122;-60
2022/10/25 06:36:15;;;;;;;13.45;5.28;;;;;;;13.83;84.94;101189.28;3614401;39;20083;-60
2022/10/25 06:38:41;;;;;;;10.57;5.30;;;;;;;13.96;84.94;101202.81;3613800;39;20059;-60
2022/10/25 06:41:13;;;;;;;12.70;5.68;;;;;;;13.99;84.36;101206.16;3612164;39;20136;-60
2022/10/25 06:43:39;;;;;;;11.10;5.07;;;;;;;13.94;84.65;101195.66;3614681;39;20047;-60
2022/10/25 06:46:15;;;;;;;12.18;5.22;;;;;;;13.97;85.10;101210.81;3613572;39;20062;-60
2022/10/25 06:48:40;;;;;;;10.05;5.28;;;;;;;13.99;84.98;101214.28;3614817;39;20046;-60
2022/10/25 06:51:08;;;;;;;9.82;5.72;;;;;;;14.00;84.33;101218.69;3613939;39;20049;-60
2022/10/25 06:53:35;;;;;;;11.23;5.38;;;;;;;13.99;84.91;101216.13;3612589;39;20049;-60
2022/10/25 06:56:09;;;;;;;10.90;5.57;;;;;;;13.99;84.57;101214.28;3612564;39;20047;-60
2022/10/25 06:58:36;;;;;;;10.65;5.53;;;;;;;14.01;84.79;101222.25;3603807;39;20051;-58
2022/10/25 07:01:10;;;;;;;12.48;5.88;;;;;;;14.01;84.66;101225.81;3613474;39;20070;-60
2022/10/25 07:03:36;;;;;;;12.73;5.60;;;;;;;14.01;85.00;101225.81;3614132;39;20116;-60
2022/10/25 07:06:06;;;;;;;10.93;5.20;;;;;;;14.07;84.54;101232.66;3614203;39;20047;-60
2022/10/25 07:08:34;;;;;;;13.35;5.80;;;;;;;14.10;84.77;101240.53;3613555;39;20063;-60
2022/10/25 07:11:00;;;;;;;11.68;5.88;;;;;;;14.13;84.73;101241.19;3613653;39;20053;-60
2022/10/25 07:13:26;;;;;;;11.13;5.22;;;;;;;14.14;84.19;101237.53;3613818;39;20062;-60
2022/10/25 07:15:52;;;;;;;8.77;5.10;;;;;;;14.20;84.31;101246.16;3613182;39;20047;-60
2022/10/25 07:18:18;;;;;;;14.63;5.78;;;;;;;14.23;83.79;101245.97;3611230;39;20079;-60
2022/10/25 07:20:47;;;;;;;11.45;5.25;;;;;;;14.26;84.00;101251.16;3614073;39;20289;-59
2022/10/25 07:23:16;;;;;;;15.70;6.00;;;;;;;14.28;83.71;101255.47;3615962;39;20058;-60
2022/10/25 07:25:42;;;;;;;13.48;5.80;;;;;;;14.32;83.97;101262.41;3614323;39;20046;-60
2022/10/25 07:28:09;;;;;;;13.98;7.95;;;;;;;14.38;84.25;101255.69;3613871;39;20069;-60
2022/10/25 07:30:34;;;;;;;13.38;5.95;;;;;;;14.44;83.90;101262.50;3611305;39;20058;-60
2022/10/25 07:33:02;;;;;;;11.35;5.03;;;;;;;14.38;83.59;101247.56;3612814;39;20050;-60
2022/10/25 07:35:28;;;;;;;10.93;5.25;;;;;;;14.56;83.52;101272.50;3614431;39;20066;-60
2022/10/25 07:37:53;;;;;;;10.30;5.53;;;;;;;14.58;83.22;101278.66;3614924;39;20254;-60
2022/10/25 07:40:19;;;;;;;9.55;5.38;;;;;;;14.60;83.08;101274.84;3613392;39;20054;-59
2022/10/25 07:42:44;;;;;;;11.05;5.28;;;;;;;14.61;82.59;101273.88;3614617;39;20059;-60
2022/10/25 07:45:10;;;;;;;11.20;5.07;;;;;;;14.65;82.55;101277.22;3613906;39;20455;-60
2022/10/25 07:47:36;;;;;;;14.38;5.78;;;;;;;14.67;82.78;101287.94;3613788;39;20057;-60
2022/10/25 07:50:01;;;;;;;13.85;5.38;;;;;;;14.63;82.11;101269.22;3612533;39;20054;-58
2022/10/25 07:52:27;;;;;;;12.35;5.18;;;;;;;14.71;82.32;101276.78;3611716;39;20091;-60
2022/10/25 07:54:52;;;;;;;12.88;5.05;;;;;;;14.74;82.00;101284.69;3612664;39;20043;-60
2022/10/25 07:57:18;;;;;;;10.80;4.97;;;;;;;14.77;81.88;101284.47;3614179;39;20054;-59
2022/10/25 07:59:44;;;;;;;10.82;5.60;;;;;;;14.81;81.85;101286.00;3613955;39;20051;-60
2022/10/25 08:02:11;;;;;;;11.85;5.25;;;;;;;14.81;82.36;101279.69;3610476;39;20055;-60
2022/10/25 08:04:37;;;;;;;8.45;5.03;;;;;;;14.85;82.14;101292.03;3613919;39;20289;-60
2022/10/25 08:07:03;;;;;;;8.75;4.75;;;;;;;14.84;82.14;101285.78;3613198;39;20047;-60
2022/10/25 08:09:28;;;;;;;8.20;5.22;;;;;;;14.93;81.91;101297.75;3613864;39;20394;-60
2022/10/25 08:11:54;;;;;;;12.23;4.90;;;;;;;14.96;81.31;101305.66;3612863;39;20408;-60
2022/10/25 08:14:20;;;;;;;13.45;5.43;;;;;;;14.95;80.92;101301.22;3614173;39;20046;-60
2022/10/25 08:16:45;;;;;;;14.65;5.45;;;;;;;15.00;80.77;101295.47;3613754;39;20077;-59
2022/10/25 08:19:11;;;;;;;11.27;5.20;;;;;;;15.04;80.94;101307.81;3612843;39;20067;-60
2022/10/25 08:21:36;;;;;;;10.18;4.43;;;;;;;15.08;81.05;101304.75;3613900;39;20049;-60
2022/10/25 08:24:02;;;;;;;13.00;5.20;;;;;;;15.09;81.10;101301.06;3611965;39;20074;-60
2022/10/25 08:26:28;;;;;;;11.43;4.97;;;;;;;15.08;80.67;101299.34;3614004;39;20051;-60
2022/10/25 08:28:54;;;;;;;11.38;4.95;;;;;;;15.12;80.52;101299.13;3611695;39;20053;-60
2022/10/25 08:31:20;;;;;;;15.02;5.40;;;;;;;15.13;79.88;101299.03;3613596;39;20057;-60
2022/10/25 08:33:46;;;;;;;10.38;4.97;;;;;;;14.96;79.91;101267.75;3614762;39;20289;-60
2022/10/25 08:36:12;;;;;;;9.70;4.97;;;;;;;15.23;80.42;101310.03;3613347;39;20324;-60
2022/10/25 08:38:37;;;;;;;9.48;4.68;;;;;;;15.24;79.30;101309.06;3613225;39;20058;-60
2022/10/25 08:41:15;;;;;;;11.68;5.20;;;;;;;15.27;80.02;101306.13;3612832;39;20055;-59
2022/10/25 08:44:09;;;;;;;14.07;5.35;;;;;;;15.25;79.52;101308.94;3613904;39;20038;-60
2022/10/25 08:46:38;;;;;;;;;;;;;;;15.23;79.24;101318.16;3611868;39;20051;-60
2022/10/25 08:49:37;;;;;;;9.10;4.45;;;;;;;15.21;79.12;101315.56;3603859;39;19942;-59
2022/10/25 08:52:16;;;;;;;14.38;4.60;;;;;;;15.23;78.98;101313.63;3610869;39;20116;-60
2022/10/25 08:54:45;;;;;;;13.13;4.72;;;;;;;15.19;79.02;101303.09;3613560;39;20062;-60
2022/10/25 08:57:36;;;;;;;14.98;4.60;;;;;;;15.40;79.45;101320.47;3612824;39;20132;-60
2022/10/25 09:00:12;;;;;;;11.10;4.55;;;;;;;15.58;78.98;101318.25;3613304;39;20065;-60
2022/10/25 09:03:01;;;;;;;9.68;4.28;;;;;;;15.62;78.60;101319.75;3612744;39;20047;-60
2022/10/25 09:05:43;;;;;;;9.52;4.28;;;;;;;15.74;78.80;101323.41;3611348;39;20051;-60
2022/10/25 09:08:50;;;;;;;9.63;4.40;;;;;;;15.81;78.49;101324.66;3612973;39;20093;-59
2022/10/25 09:11:44;;;;;;;9.65;3.88;;;;;;;16.01;77.87;101318.56;3599401;39;20066;-60
2022/10/25 09:14:33;;;;;;;10.52;4.05;;;;;;;16.19;76.30;101339.84;3610861;39;20059;-60
2022/10/25 09:17:18;;;;;;;11.73;4.20;;;;;;;16.27;75.73;101351.00;3613284;39;20478;-60
2022/10/25 09:20:35;;;;;;;11.40;4.82;;;;;;;16.28;74.79;101347.28;3613925;39;20064;-60
2022/10/25 09:23:30;;;;;;;8.30;3.85;;;;;;;16.38;75.56;101351.00;3594250;39;20086;-60
2022/10/25 09:26:34;;;;;;;11.60;3.97;;;;;;;16.48;75.07;101352.00;3612222;39;20281;-60
2022/10/25 09:29:14;;;;;;;7.22;3.40;;;;;;;16.55;73.87;101356.97;3612007;39;20080;-58
2022/10/25 09:31:49;;;;;;;9.02;3.38;;;;;;;16.56;73.75;101353.28;3611859;39;20051;-60
2022/10/25 09:34:21;;;;;;;9.18;3.80;;;;;;;16.56;73.66;101356.00;3612957;39;20043;-60
2022/10/25 09:36:56;;;;;;;11.20;3.85;;;;;;;16.56;74.25;101358.72;3613443;39;20337;-60
2022/10/25 09:39:36;;;;;;;6.88;3.47;;;;;;;16.51;73.78;101360.91;3609455;39;20123;-60
2022/10/25 09:42:09;;;;;;;10.32;3.72;;;;;;;16.33;74.25;101344.19;3613374;39;20059;-60
2022/10/25 09:44:44;;;;;;;6.63;3.78;;;;;;;16.42;74.81;101366.06;3613556;39;20081;-60
2022/10/25 09:47:51;;;;;;;10.98;3.67;;;;;;;16.38;74.53;101364.56;3612302;39;20107;-59
2022/10/25 09:50:28;;;;;;;10.90;3.38;;;;;;;16.33;74.73;101369.47;3609819;39;20051;-59
2022/10/25 09:53:10;;;;;;;10.07;3.55;;;;;;;16.29;74.78;101361.72;3612824;39;20381;-59
2022/10/25 09:55:49;;;;;;;8.10;3.38;;;;;;;16.29;75.15;101361.72;3613592;39;20043;-60
2022/10/25 09:58:25;;;;;;;11.27;3.22;;;;;;;16.29;75.02;101368.00;3612351;39;20369;-60
2022/10/25 10:00:56;;;;;;;9.43;3.25;;;;;;;16.30;74.74;101371.56;3613087;39;20058;-59
2022/10/25 10:03:29;;;;;;;13.82;4.07;;;;;;;16.19;74.43;101356.13;3612501;39;20051;-60
2022/10/25 10:06:17;;;;;;;12.43;3.50;;;;;;;16.26;74.34;101365.53;3612182;39;20058;-59
2022/10/25 10:08:59;;;;;;;10.52;3.83;;;;;;;16.24;73.96;101379.22;3611772;39;20062;-60
2022/10/25 10:11:25;;;;;;;10.25;2.88;;;;;;;16.27;74.59;101380.84;3612638;39;20057;-59
2022/10/25 10:14:06;;;;;;;6.88;2.90;;;;;;;16.33;74.74;101377.63;3614052;39;20043;-60
2022/10/25 10:16:43;;;;;;;9.10;3.20;;;;;;;16.33;74.47;101379.47;3614979;39;20057;-59
2022/10/25 10:19:17;;;;;;;10.20;3.28;;;;;;;16.15;74.49;101344.66;3614247;39;20160;-58
2022/10/25 10:22:21;;;;;;;12.50;3.10;;;;;;;16.31;74.20;101382.31;3612921;39;20052;-59
2022/10/25 10:24:59;;;;;;;6.45;2.50;;;;;;;16.29;74.93;101387.00;3609921;39;20059;-59
2022/10/25 10:27:28;;;;;;;13.40;3.63;;;;;;;16.30;74.88;101390.56;3612332;39;20126;-59
2022/10/25 10:30:06;;;;;;;9.23;3.15;;;;;;;16.27;74.05;101385.38;3613518;39;20046;-59
2022/10/25 10:32:39;;;;;;;7.90;2.40;;;;;;;16.27;74.42;101388.06;3598855;39;20040;-60
2022/10/25 10:35:23;;;;;;;;;;;;;;;16.23;74.53;101388.31;3614012;39;20074;-59
2022/10/25 10:37:48;;;;;;;8.87;2.60;;;;;;;16.28;74.52;101392.53;3613689;39;19959;-60
2022/10/25 10:40:17;;;;;;;9.20;2.70;;;;;;;16.31;74.74;101392.31;3614985;39;20268;-60
2022/10/25 10:42:43;;;;;;;8.23;3.10;;;;;;;16.33;74.20;101390.31;3614819;39;20274;-60
2022/10/25 10:45:18;;;;;;;8.43;2.78;;;;;;;16.32;73.98;101392.19;3614490;39;20131;-60
2022/10/25 10:47:56;;;;;;;9.68;2.90;;;;;;;16.33;73.37;101384.91;3613897;39;20059;-60
2022/10/25 10:50:23;;;;;;;8.45;2.70;;;;;;;16.49;73.40;101396.28;3611546;39;20063;-59
2022/10/25 10:53:24;;;;;;;5.22;2.30;;;;;;;16.61;72.87;101394.47;3612215;39;20081;-59
2022/10/25 10:55:56;;;;;;;8.68;2.53;;;;;;;16.76;72.73;101401.47;3611794;39;20077;-59
2022/10/25 10:58:38;;;;;;;10.80;2.70;;;;;;;17.14;71.27;101400.25;3613967;39;20039;-60
2022/10/25 11:01:09;;;;;;;8.40;2.50;;;;;;;17.32;70.07;101392.47;3614330;39;20035;-60
2022/10/25 11:03:41;;;;;;;11.63;2.67;;;;;;;17.36;70.05;101397.53;3603313;39;20047;-60
2022/10/25 11:06:33;;;;;;;8.02;2.72;;;;;;;17.31;69.35;101398.88;3613861;39;20073;-59
2022/10/25 11:09:16;;;;;;;8.82;2.50;;;;;;;17.27;69.58;101401.00;3616296;39;20062;-60
2022/10/25 11:11:44;;;;;;;11.53;2.33;;;;;;;17.29;69.77;101401.75;3614548;39;20375;-60
2022/10/25 11:14:14;;;;;;;10.70;2.60;;;;;;;17.35;69.99;101401.25;3613642;39;20313;-59
2022/10/25 11:17:15;;;;;;;7.55;2.78;;;;;;;17.47;70.11;101398.50;3613631;39;20046;-60
2022/10/25 11:20:23;;;;;;;10.68;2.60;;;;;;;17.75;69.03;101391.66;3612672;39;20062;-60
2022/10/25 11:23:01;;;;;;;10.77;2.80;;;;;;;18.30;68.41;101387.91;3615734;39;20062;-60
2022/10/25 11:25:40;;;;;;;9.45;2.45;;;;;;;18.63;64.78;101391.44;3610972;39;20403;-60
2022/10/25 11:28:32;;;;;;;10.25;2.13;;;;;;;19.04;64.09;101391.56;3614531;39;20083;-60
2022/10/25 11:31:33;;;;;;;7.53;2.10;;;;;;;19.09;63.31;101400.16;3612385;39;20116;-60
2022/10/25 11:34:23;;;;;;;9.68;2.20;;;;;;;18.90;62.37;101390.94;3614025;39;20302;-60
2022/10/25 11:37:29;;;;;;;8.95;2.03;;;;;;;18.77;63.02;101395.69;3612639;39;20096;-59
2022/10/25 11:40:17;;;;;;;5.45;2.17;;;;;;;18.55;63.10;101402.09;3610727;39;20053;-59
2022/10/25 11:43:15;;;;;;;9.23;2.17;;;;;;;18.37;64.28;101398.28;3613050;39;20046;-60
2022/10/25 11:45:45;;;;;;;6.88;2.08;;;;;;;18.20;64.80;101381.50;3612771;39;20059;-60
2022/10/25 11:48:29;;;;;;;7.00;2.08;;;;;;;18.19;64.92;101395.25;3614114;39;20047;-60
2022/10/25 11:51:52;;;;;;;10.68;2.30;;;;;;;18.21;65.50;101393.28;3612771;39;20043;-60